sensor_id;sensor_type;location;lat;lon;timestamp;temperature;humidity
51811;DHT22;52468;40.116;18.296;2023-10-31T00:02:25;20.40;81.50
51811;DHT22;52468;40.116;18.296;2023-10-31T00:04:53;20.50;81.50
51811;DHT22;52468;40.116;18.296;2023-10-31T00:07:21;20.40;81.50
51811;DHT22;52468;40.116;18.296;2023-10-31T00:09:49;20.50;81.50
51811;DHT22;52468;40.116;18.296;2023-10-31T00:12:17;20.40;81.60
51811;DHT22;52468;40.116;18.296;2023-10-31T00:14:45;20.50;81.60
51811;DHT22;52468;40.116;18.296;2023-10-31T00:17:13;20.60;81.60
51811;DHT22;52468;40.116;18.296;2023-10-31T00:19:40;20.60;81.60
51811;DHT22;52468;40.116;18.296;2023-10-31T00:22:08;20.70;81.40
51811;DHT22;52468;40.116;18.296;2023-10-31T00:24:36;20.70;81.40
51811;DHT22;52468;40.116;18.296;2023-10-31T00:27:04;20.70;81.30
51811;DHT22;52468;40.116;18.296;2023-10-31T00:29:32;20.70;81.10
51811;DHT22;52468;40.116;18.296;2023-10-31T00:32:00;20.80;80.90
51811;DHT22;52468;40.116;18.296;2023-10-31T00:34:27;20.90;80.70
51811;DHT22;52468;40.116;18.296;2023-10-31T00:36:55;21.00;80.20
51811;DHT22;52468;40.116;18.296;2023-10-31T00:39:23;20.90;80.10
51811;DHT22;52468;40.116;18.296;2023-10-31T00:41:51;21.00;80.10
51811;DHT22;52468;40.116;18.296;2023-10-31T00:44:19;21.00;79.90
51811;DHT22;52468;40.116;18.296;2023-10-31T00:46:47;21.10;79.50
51811;DHT22;52468;40.116;18.296;2023-10-31T00:49:15;21.10;79.00
51811;DHT22;52468;40.116;18.296;2023-10-31T00:51:43;21.10;79.00
51811;DHT22;52468;40.116;18.296;2023-10-31T00:54:11;21.10;78.90
51811;DHT22;52468;40.116;18.296;2023-10-31T00:56:39;21.10;78.70
51811;DHT22;52468;40.116;18.296;2023-10-31T00:59:07;21.10;78.40
51811;DHT22;52468;40.116;18.296;2023-10-31T01:01:35;21.10;78.50
51811;DHT22;52468;40.116;18.296;2023-10-31T01:04:03;21.10;78.30
51811;DHT22;52468;40.116;18.296;2023-10-31T01:06:31;21.10;78.30
51811;DHT22;52468;40.116;18.296;2023-10-31T01:08:59;21.10;78.20
51811;DHT22;52468;40.116;18.296;2023-10-31T01:11:26;21.20;78.10
51811;DHT22;52468;40.116;18.296;2023-10-31T01:13:54;21.10;78.10
51811;DHT22;52468;40.116;18.296;2023-10-31T01:16:22;21.20;78.40
51811;DHT22;52468;40.116;18.296;2023-10-31T01:18:50;21.20;78.30
51811;DHT22;52468;40.116;18.296;2023-10-31T01:21:18;21.30;78.40
51811;DHT22;52468;40.116;18.296;2023-10-31T01:23:47;21.20;78.50
51811;DHT22;52468;40.116;18.296;2023-10-31T01:26:15;21.20;78.60
51811;DHT22;52468;40.116;18.296;2023-10-31T01:28:43;21.30;78.40
51811;DHT22;52468;40.116;18.296;2023-10-31T01:31:11;21.30;78.40
51811;DHT22;52468;40.116;18.296;2023-10-31T01:33:39;21.30;78.40
51811;DHT22;52468;40.116;18.296;2023-10-31T01:36:07;21.20;78.50
51811;DHT22;52468;40.116;18.296;2023-10-31T01:38:35;21.20;78.40
51811;DHT22;52468;40.116;18.296;2023-10-31T01:41:03;21.10;78.60
51811;DHT22;52468;40.116;18.296;2023-10-31T01:43:35;21.10;78.60
51811;DHT22;52468;40.116;18.296;2023-10-31T01:46:04;21.10;78.50
51811;DHT22;52468;40.116;18.296;2023-10-31T01:48:33;21.10;78.50
51811;DHT22;52468;40.116;18.296;2023-10-31T01:51:03;21.10;78.60
51811;DHT22;52468;40.116;18.296;2023-10-31T01:53:32;21.10;78.70
51811;DHT22;52468;40.116;18.296;2023-10-31T01:56:02;21.10;78.70
51811;DHT22;52468;40.116;18.296;2023-10-31T01:58:34;21.10;78.80
51811;DHT22;52468;40.116;18.296;2023-10-31T02:01:02;21.10;78.90
51811;DHT22;52468;40.116;18.296;2023-10-31T02:03:31;21.00;79.20
51811;DHT22;52468;40.116;18.296;2023-10-31T02:05:59;21.10;79.30
51811;DHT22;52468;40.116;18.296;2023-10-31T02:08:27;21.00;79.30
51811;DHT22;52468;40.116;18.296;2023-10-31T02:10:55;21.10;79.10
51811;DHT22;52468;40.116;18.296;2023-10-31T02:13:23;21.00;79.30
51811;DHT22;52468;40.116;18.296;2023-10-31T02:15:51;21.00;79.30
51811;DHT22;52468;40.116;18.296;2023-10-31T02:18:19;21.10;79.50
51811;DHT22;52468;40.116;18.296;2023-10-31T02:20:48;21.00;79.50
51811;DHT22;52468;40.116;18.296;2023-10-31T02:23:16;21.10;79.40
51811;DHT22;52468;40.116;18.296;2023-10-31T02:25:44;21.10;79.30
51811;DHT22;52468;40.116;18.296;2023-10-31T02:28:12;21.10;79.30
51811;DHT22;52468;40.116;18.296;2023-10-31T02:30:40;21.10;79.60
51811;DHT22;52468;40.116;18.296;2023-10-31T02:33:08;21.10;79.60
51811;DHT22;52468;40.116;18.296;2023-10-31T02:35:36;21.20;79.30
51811;DHT22;52468;40.116;18.296;2023-10-31T02:38:04;21.10;79.40
51811;DHT22;52468;40.116;18.296;2023-10-31T02:40:32;21.20;79.10
51811;DHT22;52468;40.116;18.296;2023-10-31T02:43:00;21.20;78.90
51811;DHT22;52468;40.116;18.296;2023-10-31T02:45:29;21.20;79.00
51811;DHT22;52468;40.116;18.296;2023-10-31T02:47:57;21.20;78.90
51811;DHT22;52468;40.116;18.296;2023-10-31T02:50:24;21.20;78.90
51811;DHT22;52468;40.116;18.296;2023-10-31T02:52:53;21.20;78.90
51811;DHT22;52468;40.116;18.296;2023-10-31T02:55:21;21.30;78.60
51811;DHT22;52468;40.116;18.296;2023-10-31T02:57:49;21.30;78.50
51811;DHT22;52468;40.116;18.296;2023-10-31T03:00:17;21.30;78.40
51811;DHT22;52468;40.116;18.296;2023-10-31T03:02:45;21.30;78.30
51811;DHT22;52468;40.116;18.296;2023-10-31T03:05:13;21.30;78.30
51811;DHT22;52468;40.116;18.296;2023-10-31T03:07:41;21.20;78.50
51811;DHT22;52468;40.116;18.296;2023-10-31T03:10:09;21.30;78.40
51811;DHT22;52468;40.116;18.296;2023-10-31T03:12:38;21.40;78.20
51811;DHT22;52468;40.116;18.296;2023-10-31T03:15:06;21.30;78.30
51811;DHT22;52468;40.116;18.296;2023-10-31T03:17:34;21.30;78.40
51811;DHT22;52468;40.116;18.296;2023-10-31T03:20:02;21.40;78.40
51811;DHT22;52468;40.116;18.296;2023-10-31T03:22:31;21.30;78.50
51811;DHT22;52468;40.116;18.296;2023-10-31T03:24:59;21.40;78.50
51811;DHT22;52468;40.116;18.296;2023-10-31T03:27:26;21.40;78.40
51811;DHT22;52468;40.116;18.296;2023-10-31T03:29:54;21.50;78.50
51811;DHT22;52468;40.116;18.296;2023-10-31T03:32:22;21.50;78.30
51811;DHT22;52468;40.116;18.296;2023-10-31T03:34:50;21.50;78.20
51811;DHT22;52468;40.116;18.296;2023-10-31T03:37:18;21.50;78.30
51811;DHT22;52468;40.116;18.296;2023-10-31T03:39:46;21.50;78.40
51811;DHT22;52468;40.116;18.296;2023-10-31T03:42:14;21.50;78.20
51811;DHT22;52468;40.116;18.296;2023-10-31T03:44:42;21.60;78.20
51811;DHT22;52468;40.116;18.296;2023-10-31T03:47:10;21.60;78.20
51811;DHT22;52468;40.116;18.296;2023-10-31T03:49:39;21.50;78.30
51811;DHT22;52468;40.116;18.296;2023-10-31T03:52:07;21.60;78.10
51811;DHT22;52468;40.116;18.296;2023-10-31T03:54:35;21.60;78.50
51811;DHT22;52468;40.116;18.296;2023-10-31T03:57:03;21.60;78.50
51811;DHT22;52468;40.116;18.296;2023-10-31T03:59:31;21.60;78.20
51811;DHT22;52468;40.116;18.296;2023-10-31T04:01:59;21.60;78.40
51811;DHT22;52468;40.116;18.296;2023-10-31T04:04:27;21.70;78.20
51811;DHT22;52468;40.116;18.296;2023-10-31T04:06:55;21.70;77.90
51811;DHT22;52468;40.116;18.296;2023-10-31T04:09:22;21.70;78.00
51811;DHT22;52468;40.116;18.296;2023-10-31T04:11:50;21.60;78.10
51811;DHT22;52468;40.116;18.296;2023-10-31T04:14:18;21.60;78.20
51811;DHT22;52468;40.116;18.296;2023-10-31T04:16:46;21.50;78.40
51811;DHT22;52468;40.116;18.296;2023-10-31T04:19:14;21.60;78.40
51811;DHT22;52468;40.116;18.296;2023-10-31T04:21:42;21.60;78.40
51811;DHT22;52468;40.116;18.296;2023-10-31T04:24:10;21.60;78.60
51811;DHT22;52468;40.116;18.296;2023-10-31T04:26:40;21.60;78.60
51811;DHT22;52468;40.116;18.296;2023-10-31T04:29:08;21.60;78.80
51811;DHT22;52468;40.116;18.296;2023-10-31T04:31:36;21.60;78.90
51811;DHT22;52468;40.116;18.296;2023-10-31T04:34:05;21.70;78.90
51811;DHT22;52468;40.116;18.296;2023-10-31T04:36:33;21.80;78.70
51811;DHT22;52468;40.116;18.296;2023-10-31T04:39:00;21.90;78.20
51811;DHT22;52468;40.116;18.296;2023-10-31T04:41:28;21.80;78.20
51811;DHT22;52468;40.116;18.296;2023-10-31T04:43:56;21.80;78.30
51811;DHT22;52468;40.116;18.296;2023-10-31T04:46:27;21.70;78.50
51811;DHT22;52468;40.116;18.296;2023-10-31T04:48:55;21.70;78.60
51811;DHT22;52468;40.116;18.296;2023-10-31T04:51:23;21.70;78.70
51811;DHT22;52468;40.116;18.296;2023-10-31T04:53:51;21.70;78.80
51811;DHT22;52468;40.116;18.296;2023-10-31T04:56:19;21.80;78.90
51811;DHT22;52468;40.116;18.296;2023-10-31T04:58:46;21.80;79.10
51811;DHT22;52468;40.116;18.296;2023-10-31T05:01:16;21.80;78.90
51811;DHT22;52468;40.116;18.296;2023-10-31T05:03:44;21.80;79.00
51811;DHT22;52468;40.116;18.296;2023-10-31T05:06:11;21.90;78.90
51811;DHT22;52468;40.116;18.296;2023-10-31T05:08:39;21.90;78.90
51811;DHT22;52468;40.116;18.296;2023-10-31T05:11:07;21.90;78.80
51811;DHT22;52468;40.116;18.296;2023-10-31T05:13:35;21.90;79.00
51811;DHT22;52468;40.116;18.296;2023-10-31T05:16:04;22.00;78.90
51811;DHT22;52468;40.116;18.296;2023-10-31T05:18:31;21.90;79.00
51811;DHT22;52468;40.116;18.296;2023-10-31T05:20:59;22.00;79.00
51811;DHT22;52468;40.116;18.296;2023-10-31T05:23:27;21.90;79.00
51811;DHT22;52468;40.116;18.296;2023-10-31T05:25:55;22.00;79.30
51811;DHT22;52468;40.116;18.296;2023-10-31T05:28:23;22.00;79.20
51811;DHT22;52468;40.116;18.296;2023-10-31T05:30:51;22.00;79.20
51811;DHT22;52468;40.116;18.296;2023-10-31T05:33:19;22.10;79.10
51811;DHT22;52468;40.116;18.296;2023-10-31T05:35:47;22.10;78.90
51811;DHT22;52468;40.116;18.296;2023-10-31T05:38:15;22.20;78.80
51811;DHT22;52468;40.116;18.296;2023-10-31T05:40:43;22.30;78.60
51811;DHT22;52468;40.116;18.296;2023-10-31T05:43:10;22.20;78.70
51811;DHT22;52468;40.116;18.296;2023-10-31T05:45:38;22.30;78.40
51811;DHT22;52468;40.116;18.296;2023-10-31T05:48:06;22.50;77.80
51811;DHT22;52468;40.116;18.296;2023-10-31T05:50:34;22.50;77.80
51811;DHT22;52468;40.116;18.296;2023-10-31T05:53:02;22.60;77.20
51811;DHT22;52468;40.116;18.296;2023-10-31T05:55:30;22.60;77.00
51811;DHT22;52468;40.116;18.296;2023-10-31T05:57:58;22.80;76.80
51811;DHT22;52468;40.116;18.296;2023-10-31T06:00:26;22.80;76.60
51811;DHT22;52468;40.116;18.296;2023-10-31T06:02:54;22.90;76.20
51811;DHT22;52468;40.116;18.296;2023-10-31T06:05:22;22.80;76.40
51811;DHT22;52468;40.116;18.296;2023-10-31T06:07:49;22.90;76.00
51811;DHT22;52468;40.116;18.296;2023-10-31T06:10:17;22.90;76.10
51811;DHT22;52468;40.116;18.296;2023-10-31T06:12:45;23.00;75.80
51811;DHT22;52468;40.116;18.296;2023-10-31T06:15:13;23.00;75.60
51811;DHT22;52468;40.116;18.296;2023-10-31T06:17:41;23.00;75.50
51811;DHT22;52468;40.116;18.296;2023-10-31T06:20:09;23.10;75.40
51811;DHT22;52468;40.116;18.296;2023-10-31T06:22:38;23.00;75.50
51811;DHT22;52468;40.116;18.296;2023-10-31T06:25:06;23.10;75.20
51811;DHT22;52468;40.116;18.296;2023-10-31T06:27:34;23.20;75.00
51811;DHT22;52468;40.116;18.296;2023-10-31T06:30:02;23.30;74.90
51811;DHT22;52468;40.116;18.296;2023-10-31T06:32:32;23.30;75.10
51811;DHT22;52468;40.116;18.296;2023-10-31T06:35:00;23.50;74.70
51811;DHT22;52468;40.116;18.296;2023-10-31T06:37:28;23.50;74.50
51811;DHT22;52468;40.116;18.296;2023-10-31T06:39:56;23.60;74.50
51811;DHT22;52468;40.116;18.296;2023-10-31T06:42:24;23.60;74.50
51811;DHT22;52468;40.116;18.296;2023-10-31T06:44:52;23.60;74.30
51811;DHT22;52468;40.116;18.296;2023-10-31T06:47:20;23.60;74.30
51811;DHT22;52468;40.116;18.296;2023-10-31T06:49:48;23.60;74.30
51811;DHT22;52468;40.116;18.296;2023-10-31T06:52:16;23.50;74.40
51811;DHT22;52468;40.116;18.296;2023-10-31T06:54:43;23.60;74.30
51811;DHT22;52468;40.116;18.296;2023-10-31T06:57:11;23.60;74.10
51811;DHT22;52468;40.116;18.296;2023-10-31T06:59:39;23.60;74.20
51811;DHT22;52468;40.116;18.296;2023-10-31T07:02:07;23.70;74.20
51811;DHT22;52468;40.116;18.296;2023-10-31T07:04:36;23.70;74.20
51811;DHT22;52468;40.116;18.296;2023-10-31T07:07:04;23.80;73.70
51811;DHT22;52468;40.116;18.296;2023-10-31T07:09:32;23.90;73.30
51811;DHT22;52468;40.116;18.296;2023-10-31T07:11:59;24.00;73.30
51811;DHT22;52468;40.116;18.296;2023-10-31T07:14:27;24.00;73.00
51811;DHT22;52468;40.116;18.296;2023-10-31T07:16:56;24.00;73.00
51811;DHT22;52468;40.116;18.296;2023-10-31T07:19:24;24.10;72.90
51811;DHT22;52468;40.116;18.296;2023-10-31T07:21:52;24.20;72.40
51811;DHT22;52468;40.116;18.296;2023-10-31T07:24:20;24.40;71.70
51811;DHT22;52468;40.116;18.296;2023-10-31T07:26:48;24.50;71.70
51811;DHT22;52468;40.116;18.296;2023-10-31T07:29:16;24.50;71.30
51811;DHT22;52468;40.116;18.296;2023-10-31T07:31:44;24.50;71.40
51811;DHT22;52468;40.116;18.296;2023-10-31T07:34:12;24.50;71.50
51811;DHT22;52468;40.116;18.296;2023-10-31T07:36:40;24.40;71.60
51811;DHT22;52468;40.116;18.296;2023-10-31T07:39:08;24.40;71.50
51811;DHT22;52468;40.116;18.296;2023-10-31T07:41:36;24.50;71.40
51811;DHT22;52468;40.116;18.296;2023-10-31T07:44:04;24.50;71.40
51811;DHT22;52468;40.116;18.296;2023-10-31T07:46:33;24.50;71.60
51811;DHT22;52468;40.116;18.296;2023-10-31T07:49:01;24.60;71.50
51811;DHT22;52468;40.116;18.296;2023-10-31T07:51:29;24.70;71.40
51811;DHT22;52468;40.116;18.296;2023-10-31T07:53:57;24.80;71.20
51811;DHT22;52468;40.116;18.296;2023-10-31T07:56:26;24.90;70.70
51811;DHT22;52468;40.116;18.296;2023-10-31T07:58:54;25.00;70.60
51811;DHT22;52468;40.116;18.296;2023-10-31T08:01:22;25.00;69.80
51811;DHT22;52468;40.116;18.296;2023-10-31T08:03:50;25.10;70.00
51811;DHT22;52468;40.116;18.296;2023-10-31T08:06:18;25.30;69.70
51811;DHT22;52468;40.116;18.296;2023-10-31T08:08:47;25.50;69.20
51811;DHT22;52468;40.116;18.296;2023-10-31T08:11:15;25.80;68.00
51811;DHT22;52468;40.116;18.296;2023-10-31T08:13:42;25.90;67.50
51811;DHT22;52468;40.116;18.296;2023-10-31T08:16:10;26.00;66.90
51811;DHT22;52468;40.116;18.296;2023-10-31T08:18:44;26.10;66.60
51811;DHT22;52468;40.116;18.296;2023-10-31T08:21:12;26.10;66.10
51811;DHT22;52468;40.116;18.296;2023-10-31T08:23:40;26.10;66.10
51811;DHT22;52468;40.116;18.296;2023-10-31T08:26:09;26.00;65.80
51811;DHT22;52468;40.116;18.296;2023-10-31T08:28:37;25.90;66.50
51811;DHT22;52468;40.116;18.296;2023-10-31T08:31:05;26.00;66.70
51811;DHT22;52468;40.116;18.296;2023-10-31T08:33:32;26.00;65.90
51811;DHT22;52468;40.116;18.296;2023-10-31T08:36:00;26.00;65.50
51811;DHT22;52468;40.116;18.296;2023-10-31T08:38:28;26.10;64.90
51811;DHT22;52468;40.116;18.296;2023-10-31T08:40:58;26.20;65.10
51811;DHT22;52468;40.116;18.296;2023-10-31T08:43:26;26.50;64.70
51811;DHT22;52468;40.116;18.296;2023-10-31T08:45:54;26.80;63.90
51811;DHT22;52468;40.116;18.296;2023-10-31T08:48:22;27.00;62.90
51811;DHT22;52468;40.116;18.296;2023-10-31T08:50:50;27.00;62.60
51811;DHT22;52468;40.116;18.296;2023-10-31T08:53:18;27.10;62.60
51811;DHT22;52468;40.116;18.296;2023-10-31T08:55:50;27.10;62.40
51811;DHT22;52468;40.116;18.296;2023-10-31T08:58:18;27.10;62.40
51811;DHT22;52468;40.116;18.296;2023-10-31T09:00:46;27.20;62.30
51811;DHT22;52468;40.116;18.296;2023-10-31T09:03:13;27.20;62.30
51811;DHT22;52468;40.116;18.296;2023-10-31T09:05:42;27.30;61.90
51811;DHT22;52468;40.116;18.296;2023-10-31T09:08:10;27.10;62.40
51811;DHT22;52468;40.116;18.296;2023-10-31T09:10:38;27.40;62.20
51811;DHT22;52468;40.116;18.296;2023-10-31T09:13:06;27.60;61.10
51811;DHT22;52468;40.116;18.296;2023-10-31T09:15:34;27.80;60.40
51811;DHT22;52468;40.116;18.296;2023-10-31T09:20:31;28.50;58.90
51811;DHT22;52468;40.116;18.296;2023-10-31T09:22:59;28.50;58.30
51811;DHT22;52468;40.116;18.296;2023-10-31T09:25:27;28.60;58.20
51811;DHT22;52468;40.116;18.296;2023-10-31T09:27:55;28.60;57.80
51811;DHT22;52468;40.116;18.296;2023-10-31T09:30:22;28.80;57.30
51811;DHT22;52468;40.116;18.296;2023-10-31T09:32:50;28.60;57.20
51811;DHT22;52468;40.116;18.296;2023-10-31T09:35:18;28.50;57.90
51811;DHT22;52468;40.116;18.296;2023-10-31T09:37:46;28.50;57.90
51811;DHT22;52468;40.116;18.296;2023-10-31T09:40:16;28.50;57.30
51811;DHT22;52468;40.116;18.296;2023-10-31T09:42:45;28.60;57.40
51811;DHT22;52468;40.116;18.296;2023-10-31T09:45:13;28.70;57.60
51811;DHT22;52468;40.116;18.296;2023-10-31T09:47:42;28.80;57.00
51811;DHT22;52468;40.116;18.296;2023-10-31T09:50:11;28.60;56.70
51811;DHT22;52468;40.116;18.296;2023-10-31T09:52:39;28.40;57.70
51811;DHT22;52468;40.116;18.296;2023-10-31T09:55:08;28.30;58.10
51811;DHT22;52468;40.116;18.296;2023-10-31T09:57:36;28.20;58.40
51811;DHT22;52468;40.116;18.296;2023-10-31T10:00:04;28.10;58.80
51811;DHT22;52468;40.116;18.296;2023-10-31T10:02:36;28.30;58.00
51811;DHT22;52468;40.116;18.296;2023-10-31T10:05:04;28.10;58.60
51811;DHT22;52468;40.116;18.296;2023-10-31T10:07:34;28.10;59.00
51811;DHT22;52468;40.116;18.296;2023-10-31T10:10:03;28.00;59.40
51811;DHT22;52468;40.116;18.296;2023-10-31T10:12:31;28.00;59.30
51811;DHT22;52468;40.116;18.296;2023-10-31T10:14:59;28.00;59.20
51811;DHT22;52468;40.116;18.296;2023-10-31T10:17:27;28.00;59.50
51811;DHT22;52468;40.116;18.296;2023-10-31T10:20:11;28.10;59.00
51811;DHT22;52468;40.116;18.296;2023-10-31T10:22:40;28.20;58.80
51811;DHT22;52468;40.116;18.296;2023-10-31T10:25:11;28.30;58.20
51811;DHT22;52468;40.116;18.296;2023-10-31T10:27:42;28.30;57.90
51811;DHT22;52468;40.116;18.296;2023-10-31T10:30:12;28.30;58.40
51811;DHT22;52468;40.116;18.296;2023-10-31T10:32:40;28.30;58.40
51811;DHT22;52468;40.116;18.296;2023-10-31T10:35:08;28.20;58.30
51811;DHT22;52468;40.116;18.296;2023-10-31T10:37:38;28.20;58.40
51811;DHT22;52468;40.116;18.296;2023-10-31T10:40:07;28.20;58.70
51811;DHT22;52468;40.116;18.296;2023-10-31T10:45:10;28.40;58.80
51811;DHT22;52468;40.116;18.296;2023-10-31T10:47:45;28.30;58.80
51811;DHT22;52468;40.116;18.296;2023-10-31T10:50:13;28.30;59.10
51811;DHT22;52468;40.116;18.296;2023-10-31T10:55:23;28.40;59.00
51811;DHT22;52468;40.116;18.296;2023-10-31T10:58:33;28.80;58.60
51811;DHT22;52468;40.116;18.296;2023-10-31T11:00:52;29.00;57.40
51811;DHT22;52468;40.116;18.296;2023-10-31T11:03:22;29.10;57.10
51811;DHT22;52468;40.116;18.296;2023-10-31T11:05:51;29.20;56.50
51811;DHT22;52468;40.116;18.296;2023-10-31T11:08:20;29.10;56.80
51811;DHT22;52468;40.116;18.296;2023-10-31T11:10:49;29.00;57.40
51811;DHT22;52468;40.116;18.296;2023-10-31T11:13:17;29.00;57.00
51811;DHT22;52468;40.116;18.296;2023-10-31T11:15:46;29.00;57.20
51811;DHT22;52468;40.116;18.296;2023-10-31T11:18:14;29.00;57.10
51811;DHT22;52468;40.116;18.296;2023-10-31T11:20:42;28.90;57.20
51811;DHT22;52468;40.116;18.296;2023-10-31T11:23:11;28.70;57.90
51811;DHT22;52468;40.116;18.296;2023-10-31T11:25:44;28.60;58.00
51811;DHT22;52468;40.116;18.296;2023-10-31T11:28:17;28.50;58.30
51811;DHT22;52468;40.116;18.296;2023-10-31T11:30:48;28.70;57.80
51811;DHT22;52468;40.116;18.296;2023-10-31T11:33:20;28.80;56.90
51811;DHT22;52468;40.116;18.296;2023-10-31T11:36:00;28.80;56.40
51811;DHT22;52468;40.116;18.296;2023-10-31T11:38:32;28.80;56.30
51811;DHT22;52468;40.116;18.296;2023-10-31T11:41:02;28.90;56.30
51811;DHT22;52468;40.116;18.296;2023-10-31T11:43:56;28.80;56.50
51811;DHT22;52468;40.116;18.296;2023-10-31T11:46:24;28.60;57.10
51811;DHT22;52468;40.116;18.296;2023-10-31T11:48:53;28.70;57.20
51811;DHT22;52468;40.116;18.296;2023-10-31T11:51:23;28.70;57.50
51811;DHT22;52468;40.116;18.296;2023-10-31T11:53:52;28.80;57.50
51811;DHT22;52468;40.116;18.296;2023-10-31T11:56:21;28.80;57.30
51811;DHT22;52468;40.116;18.296;2023-10-31T11:59:02;28.50;57.60
51811;DHT22;52468;40.116;18.296;2023-10-31T12:01:31;28.50;58.10
51811;DHT22;52468;40.116;18.296;2023-10-31T12:03:59;28.40;58.50
51811;DHT22;52468;40.116;18.296;2023-10-31T12:06:27;28.50;57.80
51811;DHT22;52468;40.116;18.296;2023-10-31T12:08:59;28.50;58.00
51811;DHT22;52468;40.116;18.296;2023-10-31T12:11:28;28.40;58.10
51811;DHT22;52468;40.116;18.296;2023-10-31T12:14:00;28.20;58.80
51811;DHT22;52468;40.116;18.296;2023-10-31T12:16:33;28.10;59.20
51811;DHT22;52468;40.116;18.296;2023-10-31T12:19:03;28.10;59.30
51811;DHT22;52468;40.116;18.296;2023-10-31T12:24:08;27.80;60.40
51811;DHT22;52468;40.116;18.296;2023-10-31T12:26:36;27.70;60.80
51811;DHT22;52468;40.116;18.296;2023-10-31T12:29:17;27.80;60.90
51811;DHT22;52468;40.116;18.296;2023-10-31T12:31:53;27.70;61.00
51811;DHT22;52468;40.116;18.296;2023-10-31T12:34:22;27.60;60.70
51811;DHT22;52468;40.116;18.296;2023-10-31T12:36:52;27.50;61.00
51811;DHT22;52468;40.116;18.296;2023-10-31T12:39:25;27.20;61.70
51811;DHT22;52468;40.116;18.296;2023-10-31T12:41:54;27.00;62.60
51811;DHT22;52468;40.116;18.296;2023-10-31T12:44:26;26.90;63.30
51811;DHT22;52468;40.116;18.296;2023-10-31T12:46:55;26.80;63.90
51811;DHT22;52468;40.116;18.296;2023-10-31T12:49:23;26.70;64.10
51811;DHT22;52468;40.116;18.296;2023-10-31T12:54:36;26.80;64.00
51811;DHT22;52468;40.116;18.296;2023-10-31T12:57:06;26.80;63.90
51811;DHT22;52468;40.116;18.296;2023-10-31T12:59:36;26.80;63.90
51811;DHT22;52468;40.116;18.296;2023-10-31T13:02:06;26.80;64.10
51811;DHT22;52468;40.116;18.296;2023-10-31T13:04:34;26.80;64.20
51811;DHT22;52468;40.116;18.296;2023-10-31T13:07:07;26.80;64.50
51811;DHT22;52468;40.116;18.296;2023-10-31T13:09:37;26.80;64.10
51811;DHT22;52468;40.116;18.296;2023-10-31T13:12:07;26.80;64.10
51811;DHT22;52468;40.116;18.296;2023-10-31T13:14:35;26.90;64.00
51811;DHT22;52468;40.116;18.296;2023-10-31T13:17:05;26.90;63.60
51811;DHT22;52468;40.116;18.296;2023-10-31T13:19:34;26.80;64.10
51811;DHT22;52468;40.116;18.296;2023-10-31T13:22:02;26.90;64.30
51811;DHT22;52468;40.116;18.296;2023-10-31T13:24:29;26.80;64.60
51811;DHT22;52468;40.116;18.296;2023-10-31T13:26:58;26.60;65.10
51811;DHT22;52468;40.116;18.296;2023-10-31T13:29:27;26.60;65.30
51811;DHT22;52468;40.116;18.296;2023-10-31T13:31:55;26.70;65.30
51811;DHT22;52468;40.116;18.296;2023-10-31T13:34:23;26.70;65.10
51811;DHT22;52468;40.116;18.296;2023-10-31T13:36:51;26.70;65.40
51811;DHT22;52468;40.116;18.296;2023-10-31T13:39:20;26.70;65.50
51811;DHT22;52468;40.116;18.296;2023-10-31T13:41:49;26.60;65.50
51811;DHT22;52468;40.116;18.296;2023-10-31T13:44:17;26.60;65.50
51811;DHT22;52468;40.116;18.296;2023-10-31T13:46:45;26.50;65.70
51811;DHT22;52468;40.116;18.296;2023-10-31T13:49:12;26.50;66.00
51811;DHT22;52468;40.116;18.296;2023-10-31T13:51:41;26.50;66.30
51811;DHT22;52468;40.116;18.296;2023-10-31T13:54:09;26.40;66.60
51811;DHT22;52468;40.116;18.296;2023-10-31T13:56:37;26.40;66.70
51811;DHT22;52468;40.116;18.296;2023-10-31T13:59:05;26.30;66.90
51811;DHT22;52468;40.116;18.296;2023-10-31T14:01:33;26.30;67.10
51811;DHT22;52468;40.116;18.296;2023-10-31T14:04:01;26.30;67.20
51811;DHT22;52468;40.116;18.296;2023-10-31T14:06:29;26.30;67.20
51811;DHT22;52468;40.116;18.296;2023-10-31T14:09:00;26.20;67.80
51811;DHT22;52468;40.116;18.296;2023-10-31T14:11:32;26.20;67.60
51811;DHT22;52468;40.116;18.296;2023-10-31T14:14:01;26.10;68.10
51811;DHT22;52468;40.116;18.296;2023-10-31T14:16:37;26.10;68.30
51811;DHT22;52468;40.116;18.296;2023-10-31T14:19:06;26.00;68.70
51811;DHT22;52468;40.116;18.296;2023-10-31T14:21:35;26.00;68.80
51811;DHT22;52468;40.116;18.296;2023-10-31T14:24:03;26.00;68.80
51811;DHT22;52468;40.116;18.296;2023-10-31T14:26:35;26.00;68.70
51811;DHT22;52468;40.116;18.296;2023-10-31T14:29:03;26.00;68.90
51811;DHT22;52468;40.116;18.296;2023-10-31T14:31:32;26.00;69.20
51811;DHT22;52468;40.116;18.296;2023-10-31T14:33:59;25.90;69.20
51811;DHT22;52468;40.116;18.296;2023-10-31T14:36:27;25.80;69.40
51811;DHT22;52468;40.116;18.296;2023-10-31T14:38:55;25.80;69.50
51811;DHT22;52468;40.116;18.296;2023-10-31T14:41:23;25.70;69.90
51811;DHT22;52468;40.116;18.296;2023-10-31T14:43:52;25.70;69.70
51811;DHT22;52468;40.116;18.296;2023-10-31T14:46:20;25.80;69.90
51811;DHT22;52468;40.116;18.296;2023-10-31T14:48:48;25.70;70.10
51811;DHT22;52468;40.116;18.296;2023-10-31T14:51:16;25.60;70.40
51811;DHT22;52468;40.116;18.296;2023-10-31T14:53:45;25.50;70.80
51811;DHT22;52468;40.116;18.296;2023-10-31T14:56:13;25.50;71.00
51811;DHT22;52468;40.116;18.296;2023-10-31T14:58:41;25.30;71.50
51811;DHT22;52468;40.116;18.296;2023-10-31T15:01:10;25.30;71.90
51811;DHT22;52468;40.116;18.296;2023-10-31T15:03:37;25.30;71.90
51811;DHT22;52468;40.116;18.296;2023-10-31T15:06:06;25.30;72.00
51811;DHT22;52468;40.116;18.296;2023-10-31T15:08:35;25.20;72.50
51811;DHT22;52468;40.116;18.296;2023-10-31T15:11:03;25.20;73.10
51811;DHT22;52468;40.116;18.296;2023-10-31T15:13:31;25.20;73.00
51811;DHT22;52468;40.116;18.296;2023-10-31T15:15:59;25.20;73.10
51811;DHT22;52468;40.116;18.296;2023-10-31T15:18:27;25.10;73.40
51811;DHT22;52468;40.116;18.296;2023-10-31T15:20:55;25.00;73.80
51811;DHT22;52468;40.116;18.296;2023-10-31T15:23:25;25.00;74.10
51811;DHT22;52468;40.116;18.296;2023-10-31T15:25:54;24.90;74.30
51811;DHT22;52468;40.116;18.296;2023-10-31T15:28:24;24.80;74.40
51811;DHT22;52468;40.116;18.296;2023-10-31T15:30:54;24.70;74.80
51811;DHT22;52468;40.116;18.296;2023-10-31T15:33:22;24.60;75.20
51811;DHT22;52468;40.116;18.296;2023-10-31T15:35:50;24.60;75.40
51811;DHT22;52468;40.116;18.296;2023-10-31T15:38:18;24.50;75.80